sensor_id;sensor_type;location;lat;lon;timestamp;P1;durP1;ratioP1;P2;durP2;ratioP2
68216;SDS011;55037;52.354;4.992;2024-01-10T00:02:10;16.88;;;15.75;;
68216;SDS011;55037;52.354;4.992;2024-01-10T00:04:38;17.45;;;16.25;;
68216;SDS011;55037;52.354;4.992;2024-01-10T00:07:06;17.83;;;16.45;;
68216;SDS011;55037;52.354;4.992;2024-01-10T00:09:33;17.35;;;16.15;;
68216;SDS011;55037;52.354;4.992;2024-01-10T00:12:01;18.53;;;17.23;;
68216;SDS011;55037;52.354;4.992;2024-01-10T00:14:28;16.77;;;15.45;;
68216;SDS011;55037;52.354;4.992;2024-01-10T00:16:56;18.20;;;16.92;;
68216;SDS011;55037;52.354;4.992;2024-01-10T00:19:24;18.02;;;16.73;;
68216;SDS011;55037;52.354;4.992;2024-01-10T00:21:51;18.17;;;16.87;;
68216;SDS011;55037;52.354;4.992;2024-01-10T00:24:19;19.17;;;17.77;;
68216;SDS011;55037;52.354;4.992;2024-01-10T00:26:46;17.25;;;16.13;;
68216;SDS011;55037;52.354;4.992;2024-01-10T00:29:14;17.25;;;16.05;;
68216;SDS011;55037;52.354;4.992;2024-01-10T00:31:42;18.75;;;17.15;;
68216;SDS011;55037;52.354;4.992;2024-01-10T00:34:09;16.97;;;15.77;;
68216;SDS011;55037;52.354;4.992;2024-01-10T00:36:37;17.42;;;15.90;;
68216;SDS011;55037;52.354;4.992;2024-01-10T00:39:05;18.88;;;17.58;;
68216;SDS011;55037;52.354;4.992;2024-01-10T00:41:33;19.00;;;17.70;;
68216;SDS011;55037;52.354;4.992;2024-01-10T00:44:00;17.40;;;16.20;;
68216;SDS011;55037;52.354;4.992;2024-01-10T00:46:28;17.67;;;16.48;;
68216;SDS011;55037;52.354;4.992;2024-01-10T00:48:56;19.37;;;17.87;;
68216;SDS011;55037;52.354;4.992;2024-01-10T00:51:23;17.20;;;16.00;;
68216;SDS011;55037;52.354;4.992;2024-01-10T00:53:51;16.23;;;15.02;;
68216;SDS011;55037;52.354;4.992;2024-01-10T00:56:19;18.25;;;16.85;;
68216;SDS011;55037;52.354;4.992;2024-01-10T00:58:47;16.48;;;15.27;;
68216;SDS011;55037;52.354;4.992;2024-01-10T01:01:15;17.38;;;16.08;;
68216;SDS011;55037;52.354;4.992;2024-01-10T01:03:43;17.13;;;15.77;;
68216;SDS011;55037;52.354;4.992;2024-01-10T01:06:10;17.45;;;16.15;;
68216;SDS011;55037;52.354;4.992;2024-01-10T01:08:38;16.20;;;15.00;;
68216;SDS011;55037;52.354;4.992;2024-01-10T01:11:06;18.13;;;16.80;;
68216;SDS011;55037;52.354;4.992;2024-01-10T01:13:34;18.08;;;16.77;;
68216;SDS011;55037;52.354;4.992;2024-01-10T01:16:02;18.17;;;16.77;;
68216;SDS011;55037;52.354;4.992;2024-01-10T01:18:29;16.50;;;15.30;;
68216;SDS011;55037;52.354;4.992;2024-01-10T01:20:57;17.55;;;16.25;;
68216;SDS011;55037;52.354;4.992;2024-01-10T01:23:25;16.60;;;15.33;;
68216;SDS011;55037;52.354;4.992;2024-01-10T01:26:07;17.70;;;16.40;;
68216;SDS011;55037;52.354;4.992;2024-01-10T01:28:35;16.00;;;14.80;;
68216;SDS011;55037;52.354;4.992;2024-01-10T01:31:02;17.48;;;16.23;;
68216;SDS011;55037;52.354;4.992;2024-01-10T01:33:30;16.98;;;15.73;;
68216;SDS011;55037;52.354;4.992;2024-01-10T01:35:58;16.92;;;15.73;;
68216;SDS011;55037;52.354;4.992;2024-01-10T01:38:25;17.45;;;16.23;;
68216;SDS011;55037;52.354;4.992;2024-01-10T01:40:53;18.23;;;17.00;;
68216;SDS011;55037;52.354;4.992;2024-01-10T01:43:22;16.45;;;15.35;;
68216;SDS011;55037;52.354;4.992;2024-01-10T01:45:53;18.52;;;17.05;;
68216;SDS011;55037;52.354;4.992;2024-01-10T01:48:21;16.45;;;15.25;;
68216;SDS011;55037;52.354;4.992;2024-01-10T01:51:03;18.38;;;17.08;;
68216;SDS011;55037;52.354;4.992;2024-01-10T01:53:35;16.48;;;15.27;;
68216;SDS011;55037;52.354;4.992;2024-01-10T01:56:06;17.67;;;16.40;;
68216;SDS011;55037;52.354;4.992;2024-01-10T01:58:34;16.57;;;15.43;;
68216;SDS011;55037;52.354;4.992;2024-01-10T02:01:03;16.63;;;15.45;;
68216;SDS011;55037;52.354;4.992;2024-01-10T02:03:32;16.00;;;14.90;;
68216;SDS011;55037;52.354;4.992;2024-01-10T02:06:00;16.02;;;14.82;;
68216;SDS011;55037;52.354;4.992;2024-01-10T02:08:32;16.58;;;15.27;;
68216;SDS011;55037;52.354;4.992;2024-01-10T02:11:03;16.85;;;15.65;;
68216;SDS011;55037;52.354;4.992;2024-01-10T02:13:32;16.50;;;15.30;;
68216;SDS011;55037;52.354;4.992;2024-01-10T02:15:59;14.63;;;13.63;;
68216;SDS011;55037;52.354;4.992;2024-01-10T02:18:27;15.55;;;14.40;;
68216;SDS011;55037;52.354;4.992;2024-01-10T02:20:55;16.15;;;14.93;;
68216;SDS011;55037;52.354;4.992;2024-01-10T02:23:23;15.60;;;14.48;;
68216;SDS011;55037;52.354;4.992;2024-01-10T02:25:50;15.85;;;14.65;;
68216;SDS011;55037;52.354;4.992;2024-01-10T02:28:18;16.27;;;14.98;;
68216;SDS011;55037;52.354;4.992;2024-01-10T02:30:46;16.30;;;15.18;;
68216;SDS011;55037;52.354;4.992;2024-01-10T02:33:14;15.43;;;14.33;;
68216;SDS011;55037;52.354;4.992;2024-01-10T02:35:41;16.50;;;15.32;;
68216;SDS011;55037;52.354;4.992;2024-01-10T02:38:09;14.00;;;13.00;;
68216;SDS011;55037;52.354;4.992;2024-01-10T02:40:37;14.75;;;13.68;;
68216;SDS011;55037;52.354;4.992;2024-01-10T02:43:04;16.83;;;15.25;;
68216;SDS011;55037;52.354;4.992;2024-01-10T02:45:34;14.80;;;13.80;;
68216;SDS011;55037;52.354;4.992;2024-01-10T02:48:02;15.90;;;14.60;;
68216;SDS011;55037;52.354;4.992;2024-01-10T02:50:30;15.15;;;14.07;;
68216;SDS011;55037;52.354;4.992;2024-01-10T02:52:58;16.15;;;14.85;;
68216;SDS011;55037;52.354;4.992;2024-01-10T02:55:25;15.57;;;14.27;;
68216;SDS011;55037;52.354;4.992;2024-01-10T02:57:53;15.10;;;14.05;;
68216;SDS011;55037;52.354;4.992;2024-01-10T03:00:21;15.63;;;14.35;;
68216;SDS011;55037;52.354;4.992;2024-01-10T03:02:49;15.45;;;14.27;;
68216;SDS011;55037;52.354;4.992;2024-01-10T03:05:16;14.53;;;13.53;;
68216;SDS011;55037;52.354;4.992;2024-01-10T03:07:44;15.18;;;13.98;;
68216;SDS011;55037;52.354;4.992;2024-01-10T03:10:12;15.65;;;14.35;;
68216;SDS011;55037;52.354;4.992;2024-01-10T03:12:39;15.40;;;14.00;;
68216;SDS011;55037;52.354;4.992;2024-01-10T03:15:07;14.80;;;13.70;;
68216;SDS011;55037;52.354;4.992;2024-01-10T03:17:35;14.85;;;13.75;;
68216;SDS011;55037;52.354;4.992;2024-01-10T03:20:03;14.18;;;13.18;;
68216;SDS011;55037;52.354;4.992;2024-01-10T03:22:31;13.90;;;12.80;;
68216;SDS011;55037;52.354;4.992;2024-01-10T03:24:59;14.45;;;13.35;;
68216;SDS011;55037;52.354;4.992;2024-01-10T03:27:26;15.93;;;14.65;;
68216;SDS011;55037;52.354;4.992;2024-01-10T03:29:54;14.65;;;13.60;;
68216;SDS011;55037;52.354;4.992;2024-01-10T03:32:21;14.18;;;13.13;;
68216;SDS011;55037;52.354;4.992;2024-01-10T03:34:49;13.05;;;11.93;;
68216;SDS011;55037;52.354;4.992;2024-01-10T03:37:18;14.77;;;13.57;;
68216;SDS011;55037;52.354;4.992;2024-01-10T03:39:45;14.98;;;13.88;;
68216;SDS011;55037;52.354;4.992;2024-01-10T03:42:13;13.70;;;12.70;;
68216;SDS011;55037;52.354;4.992;2024-01-10T03:44:42;14.45;;;13.45;;
68216;SDS011;55037;52.354;4.992;2024-01-10T03:47:10;15.25;;;14.15;;
68216;SDS011;55037;52.354;4.992;2024-01-10T03:49:37;12.82;;;11.93;;
68216;SDS011;55037;52.354;4.992;2024-01-10T03:52:05;12.38;;;11.40;;
68216;SDS011;55037;52.354;4.992;2024-01-10T03:54:33;14.13;;;13.13;;
68216;SDS011;55037;52.354;4.992;2024-01-10T03:57:00;14.88;;;13.77;;
68216;SDS011;55037;52.354;4.992;2024-01-10T03:59:28;15.40;;;14.20;;
68216;SDS011;55037;52.354;4.992;2024-01-10T04:01:55;14.60;;;13.40;;
68216;SDS011;55037;52.354;4.992;2024-01-10T04:04:23;14.35;;;13.30;;
68216;SDS011;55037;52.354;4.992;2024-01-10T04:06:51;14.47;;;13.37;;
68216;SDS011;55037;52.354;4.992;2024-01-10T04:09:19;13.45;;;12.55;;
68216;SDS011;55037;52.354;4.992;2024-01-10T04:11:47;14.37;;;13.33;;
68216;SDS011;55037;52.354;4.992;2024-01-10T04:14:14;14.52;;;13.52;;
68216;SDS011;55037;52.354;4.992;2024-01-10T04:16:42;14.15;;;13.15;;
68216;SDS011;55037;52.354;4.992;2024-01-10T04:19:10;13.15;;;12.25;;
68216;SDS011;55037;52.354;4.992;2024-01-10T04:21:37;13.10;;;12.15;;
68216;SDS011;55037;52.354;4.992;2024-01-10T04:24:05;14.68;;;13.38;;
68216;SDS011;55037;52.354;4.992;2024-01-10T04:26:33;13.90;;;12.80;;
68216;SDS011;55037;52.354;4.992;2024-01-10T04:29:00;14.18;;;13.07;;
68216;SDS011;55037;52.354;4.992;2024-01-10T04:31:28;13.93;;;12.93;;
68216;SDS011;55037;52.354;4.992;2024-01-10T04:33:56;14.68;;;13.63;;
68216;SDS011;55037;52.354;4.992;2024-01-10T04:36:24;13.27;;;12.38;;
68216;SDS011;55037;52.354;4.992;2024-01-10T04:38:51;12.82;;;11.90;;
68216;SDS011;55037;52.354;4.992;2024-01-10T04:41:19;15.00;;;13.90;;
68216;SDS011;55037;52.354;4.992;2024-01-10T04:43:47;14.02;;;13.02;;
68216;SDS011;55037;52.354;4.992;2024-01-10T04:46:15;13.73;;;12.75;;
68216;SDS011;55037;52.354;4.992;2024-01-10T04:48:42;13.25;;;12.30;;
68216;SDS011;55037;52.354;4.992;2024-01-10T04:51:10;14.45;;;13.35;;
68216;SDS011;55037;52.354;4.992;2024-01-10T04:53:38;14.13;;;13.13;;
68216;SDS011;55037;52.354;4.992;2024-01-10T04:56:05;14.50;;;13.43;;
68216;SDS011;55037;52.354;4.992;2024-01-10T04:58:33;15.35;;;14.25;;
68216;SDS011;55037;52.354;4.992;2024-01-10T05:01:01;14.55;;;13.55;;
68216;SDS011;55037;52.354;4.992;2024-01-10T05:03:29;15.93;;;14.82;;
68216;SDS011;55037;52.354;4.992;2024-01-10T05:05:57;14.50;;;13.35;;
68216;SDS011;55037;52.354;4.992;2024-01-10T05:08:25;13.98;;;12.88;;
68216;SDS011;55037;52.354;4.992;2024-01-10T05:10:53;15.05;;;13.85;;
68216;SDS011;55037;52.354;4.992;2024-01-10T05:13:21;15.52;;;14.32;;
68216;SDS011;55037;52.354;4.992;2024-01-10T05:15:48;14.75;;;13.25;;
68216;SDS011;55037;52.354;4.992;2024-01-10T05:18:16;13.35;;;12.35;;
68216;SDS011;55037;52.354;4.992;2024-01-10T05:20:44;14.82;;;13.70;;
68216;SDS011;55037;52.354;4.992;2024-01-10T05:23:12;15.82;;;14.63;;
68216;SDS011;55037;52.354;4.992;2024-01-10T05:25:39;13.38;;;12.48;;
68216;SDS011;55037;52.354;4.992;2024-01-10T05:28:07;14.57;;;13.52;;
68216;SDS011;55037;52.354;4.992;2024-01-10T05:30:35;14.85;;;13.77;;
68216;SDS011;55037;52.354;4.992;2024-01-10T05:33:02;13.98;;;12.90;;
68216;SDS011;55037;52.354;4.992;2024-01-10T05:35:30;16.27;;;13.77;;
68216;SDS011;55037;52.354;4.992;2024-01-10T05:37:57;14.77;;;13.70;;
68216;SDS011;55037;52.354;4.992;2024-01-10T05:40:25;13.90;;;12.85;;
68216;SDS011;55037;52.354;4.992;2024-01-10T05:42:54;14.48;;;13.48;;
68216;SDS011;55037;52.354;4.992;2024-01-10T05:45:21;15.10;;;13.85;;
68216;SDS011;55037;52.354;4.992;2024-01-10T05:47:49;15.32;;;13.93;;
68216;SDS011;55037;52.354;4.992;2024-01-10T05:50:17;13.83;;;12.80;;
68216;SDS011;55037;52.354;4.992;2024-01-10T05:52:44;14.65;;;13.45;;
68216;SDS011;55037;52.354;4.992;2024-01-10T05:55:15;14.82;;;13.68;;
68216;SDS011;55037;52.354;4.992;2024-01-10T05:57:42;13.85;;;12.85;;
68216;SDS011;55037;52.354;4.992;2024-01-10T06:00:10;13.95;;;12.95;;
68216;SDS011;55037;52.354;4.992;2024-01-10T06:02:39;15.00;;;13.90;;
68216;SDS011;55037;52.354;4.992;2024-01-10T06:05:10;12.52;;;11.63;;
68216;SDS011;55037;52.354;4.992;2024-01-10T06:07:39;14.18;;;13.13;;
68216;SDS011;55037;52.354;4.992;2024-01-10T06:10:10;15.27;;;14.18;;
68216;SDS011;55037;52.354;4.992;2024-01-10T06:12:37;14.43;;;13.27;;
68216;SDS011;55037;52.354;4.992;2024-01-10T06:15:05;13.57;;;12.47;;
68216;SDS011;55037;52.354;4.992;2024-01-10T06:17:33;14.30;;;13.30;;
68216;SDS011;55037;52.354;4.992;2024-01-10T06:20:01;13.77;;;12.77;;
68216;SDS011;55037;52.354;4.992;2024-01-10T06:22:30;13.63;;;12.55;;
68216;SDS011;55037;52.354;4.992;2024-01-10T06:24:58;14.70;;;13.60;;
68216;SDS011;55037;52.354;4.992;2024-01-10T06:27:26;13.77;;;12.77;;
68216;SDS011;55037;52.354;4.992;2024-01-10T06:29:53;12.57;;;11.70;;
68216;SDS011;55037;52.354;4.992;2024-01-10T06:32:21;14.13;;;13.13;;
68216;SDS011;55037;52.354;4.992;2024-01-10T06:34:48;13.68;;;12.65;;
68216;SDS011;55037;52.354;4.992;2024-01-10T06:37:16;13.27;;;12.20;;
68216;SDS011;55037;52.354;4.992;2024-01-10T06:39:44;14.88;;;13.73;;
68216;SDS011;55037;52.354;4.992;2024-01-10T06:42:12;13.30;;;12.30;;
68216;SDS011;55037;52.354;4.992;2024-01-10T06:44:39;13.77;;;12.73;;
68216;SDS011;55037;52.354;4.992;2024-01-10T06:47:07;14.73;;;13.63;;
68216;SDS011;55037;52.354;4.992;2024-01-10T06:49:34;14.18;;;13.15;;
68216;SDS011;55037;52.354;4.992;2024-01-10T06:52:02;14.70;;;13.60;;
68216;SDS011;55037;52.354;4.992;2024-01-10T06:54:30;15.67;;;14.47;;
68216;SDS011;55037;52.354;4.992;2024-01-10T06:56:57;14.68;;;13.68;;
68216;SDS011;55037;52.354;4.992;2024-01-10T06:59:25;13.40;;;12.45;;
68216;SDS011;55037;52.354;4.992;2024-01-10T07:01:53;14.65;;;13.57;;
68216;SDS011;55037;52.354;4.992;2024-01-10T07:04:23;14.67;;;13.50;;
68216;SDS011;55037;52.354;4.992;2024-01-10T07:06:51;14.23;;;13.23;;
68216;SDS011;55037;52.354;4.992;2024-01-10T07:09:19;14.90;;;13.82;;
68216;SDS011;55037;52.354;4.992;2024-01-10T07:11:47;13.77;;;12.80;;
68216;SDS011;55037;52.354;4.992;2024-01-10T07:14:15;14.07;;;13.07;;
68216;SDS011;55037;52.354;4.992;2024-01-10T07:16:43;13.60;;;12.60;;
68216;SDS011;55037;52.354;4.992;2024-01-10T07:19:13;14.02;;;12.93;;
68216;SDS011;55037;52.354;4.992;2024-01-10T07:21:41;14.07;;;13.07;;
68216;SDS011;55037;52.354;4.992;2024-01-10T07:24:09;14.43;;;13.45;;
68216;SDS011;55037;52.354;4.992;2024-01-10T07:26:37;14.55;;;13.55;;
68216;SDS011;55037;52.354;4.992;2024-01-10T07:29:04;14.68;;;13.48;;
68216;SDS011;55037;52.354;4.992;2024-01-10T07:31:35;13.97;;;12.77;;
68216;SDS011;55037;52.354;4.992;2024-01-10T07:34:03;14.52;;;13.52;;
68216;SDS011;55037;52.354;4.992;2024-01-10T07:36:32;14.13;;;13.13;;
68216;SDS011;55037;52.354;4.992;2024-01-10T07:39:00;14.70;;;13.50;;
68216;SDS011;55037;52.354;4.992;2024-01-10T07:41:30;13.68;;;12.68;;
68216;SDS011;55037;52.354;4.992;2024-01-10T07:43:58;14.23;;;13.05;;
68216;SDS011;55037;52.354;4.992;2024-01-10T07:46:26;14.05;;;12.95;;
68216;SDS011;55037;52.354;4.992;2024-01-10T07:48:54;12.98;;;12.07;;
68216;SDS011;55037;52.354;4.992;2024-01-10T07:51:22;14.98;;;13.77;;
68216;SDS011;55037;52.354;4.992;2024-01-10T07:53:49;14.27;;;13.07;;
68216;SDS011;55037;52.354;4.992;2024-01-10T07:56:17;17.33;;;14.00;;
68216;SDS011;55037;52.354;4.992;2024-01-10T07:58:46;14.00;;;12.90;;
68216;SDS011;55037;52.354;4.992;2024-01-10T08:01:15;14.80;;;13.60;;
68216;SDS011;55037;52.354;4.992;2024-01-10T08:03:43;14.95;;;13.85;;
68216;SDS011;55037;52.354;4.992;2024-01-10T08:06:10;14.90;;;13.70;;
68216;SDS011;55037;52.354;4.992;2024-01-10T08:08:52;13.83;;;12.83;;
68216;SDS011;55037;52.354;4.992;2024-01-10T08:11:20;14.07;;;13.07;;
68216;SDS011;55037;52.354;4.992;2024-01-10T08:13:48;14.38;;;13.38;;
68216;SDS011;55037;52.354;4.992;2024-01-10T08:16:15;14.88;;;13.85;;
68216;SDS011;55037;52.354;4.992;2024-01-10T08:18:44;15.25;;;14.10;;
68216;SDS011;55037;52.354;4.992;2024-01-10T08:21:12;14.63;;;13.57;;
68216;SDS011;55037;52.354;4.992;2024-01-10T08:23:40;14.87;;;13.77;;
68216;SDS011;55037;52.354;4.992;2024-01-10T08:26:07;15.70;;;14.50;;
68216;SDS011;55037;52.354;4.992;2024-01-10T08:28:35;16.38;;;15.00;;
68216;SDS011;55037;52.354;4.992;2024-01-10T08:31:03;15.70;;;14.60;;
68216;SDS011;55037;52.354;4.992;2024-01-10T08:33:32;15.35;;;14.25;;
68216;SDS011;55037;52.354;4.992;2024-01-10T08:35:59;15.07;;;13.98;;
68216;SDS011;55037;52.354;4.992;2024-01-10T08:38:27;15.25;;;14.15;;
68216;SDS011;55037;52.354;4.992;2024-01-10T08:40:55;15.97;;;14.67;;
68216;SDS011;55037;52.354;4.992;2024-01-10T08:43:22;15.55;;;14.45;;
68216;SDS011;55037;52.354;4.992;2024-01-10T08:45:50;16.38;;;15.18;;
68216;SDS011;55037;52.354;4.992;2024-01-10T08:48:18;16.88;;;15.63;;
68216;SDS011;55037;52.354;4.992;2024-01-10T08:50:45;16.53;;;15.30;;
68216;SDS011;55037;52.354;4.992;2024-01-10T08:53:13;16.35;;;15.10;;
68216;SDS011;55037;52.354;4.992;2024-01-10T08:55:42;16.90;;;15.70;;
68216;SDS011;55037;52.354;4.992;2024-01-10T08:58:10;17.88;;;16.67;;
68216;SDS011;55037;52.354;4.992;2024-01-10T09:00:39;18.58;;;17.33;;
68216;SDS011;55037;52.354;4.992;2024-01-10T09:03:06;22.35;;;20.75;;
68216;SDS011;55037;52.354;4.992;2024-01-10T09:05:34;24.98;;;23.17;;
68216;SDS011;55037;52.354;4.992;2024-01-10T09:08:01;25.05;;;23.25;;
68216;SDS011;55037;52.354;4.992;2024-01-10T09:10:29;25.88;;;23.88;;
68216;SDS011;55037;52.354;4.992;2024-01-10T09:12:58;23.60;;;21.90;;
68216;SDS011;55037;52.354;4.992;2024-01-10T09:15:25;22.83;;;21.13;;
68216;SDS011;55037;52.354;4.992;2024-01-10T09:17:53;22.02;;;20.42;;
68216;SDS011;55037;52.354;4.992;2024-01-10T09:20:21;21.30;;;19.73;;
68216;SDS011;55037;52.354;4.992;2024-01-10T09:22:49;18.30;;;16.98;;
68216;SDS011;55037;52.354;4.992;2024-01-10T09:25:17;12.17;;;11.13;;
68216;SDS011;55037;52.354;4.992;2024-01-10T09:27:44;6.03;;;4.10;;
68216;SDS011;55037;52.354;4.992;2024-01-10T09:30:13;4.13;;;2.33;;
68216;SDS011;55037;52.354;4.992;2024-01-10T09:32:45;4.80;;;2.70;;
68216;SDS011;55037;52.354;4.992;2024-01-10T09:35:13;6.53;;;3.15;;
68216;SDS011;55037;52.354;4.992;2024-01-10T09:37:41;5.37;;;2.97;;
68216;SDS011;55037;52.354;4.992;2024-01-10T09:40:08;9.57;;;2.60;;
68216;SDS011;55037;52.354;4.992;2024-01-10T09:42:36;7.50;;;3.00;;
68216;SDS011;55037;52.354;4.992;2024-01-10T09:45:05;4.50;;;2.40;;
68216;SDS011;55037;52.354;4.992;2024-01-10T09:47:32;4.55;;;2.80;;
68216;SDS011;55037;52.354;4.992;2024-01-10T09:50:03;5.30;;;2.75;;
68216;SDS011;55037;52.354;4.992;2024-01-10T09:52:33;5.18;;;3.10;;
68216;SDS011;55037;52.354;4.992;2024-01-10T09:55:02;8.65;;;2.72;;
68216;SDS011;55037;52.354;4.992;2024-01-10T09:57:30;5.43;;;3.20;;
68216;SDS011;55037;52.354;4.992;2024-01-10T09:59:58;5.22;;;3.28;;
68216;SDS011;55037;52.354;4.992;2024-01-10T10:02:25;5.05;;;2.83;;
68216;SDS011;55037;52.354;4.992;2024-01-10T10:04:54;4.93;;;2.83;;
68216;SDS011;55037;52.354;4.992;2024-01-10T10:07:24;6.03;;;3.13;;
68216;SDS011;55037;52.354;4.992;2024-01-10T10:09:52;6.50;;;2.78;;
68216;SDS011;55037;52.354;4.992;2024-01-10T10:12:26;3.55;;;2.30;;
68216;SDS011;55037;52.354;4.992;2024-01-10T10:15:12;4.77;;;3.17;;
68216;SDS011;55037;52.354;4.992;2024-01-10T10:17:40;3.53;;;2.13;;
68216;SDS011;55037;52.354;4.992;2024-01-10T10:20:14;4.38;;;2.53;;
68216;SDS011;55037;52.354;4.992;2024-01-10T10:22:44;12.30;;;2.90;;
68216;SDS011;55037;52.354;4.992;2024-01-10T10:25:29;6.88;;;2.78;;
68216;SDS011;55037;52.354;4.992;2024-01-10T10:27:58;3.97;;;2.87;;
68216;SDS011;55037;52.354;4.992;2024-01-10T10:30:27;5.15;;;3.10;;
68216;SDS011;55037;52.354;4.992;2024-01-10T10:32:55;5.40;;;3.58;;
68216;SDS011;55037;52.354;4.992;2024-01-10T10:35:23;6.57;;;3.67;;
68216;SDS011;55037;52.354;4.992;2024-01-10T10:38:07;5.25;;;3.28;;
68216;SDS011;55037;52.354;4.992;2024-01-10T10:40:36;5.78;;;3.50;;
68216;SDS011;55037;52.354;4.992;2024-01-10T10:43:04;5.22;;;3.58;;
68216;SDS011;55037;52.354;4.992;2024-01-10T10:45:31;5.03;;;3.08;;
68216;SDS011;55037;52.354;4.992;2024-01-10T10:48:01;4.70;;;3.13;;
68216;SDS011;55037;52.354;4.992;2024-01-10T10:50:35;6.25;;;2.42;;
68216;SDS011;55037;52.354;4.992;2024-01-10T10:53:03;5.43;;;3.60;;
68216;SDS011;55037;52.354;4.992;2024-01-10T10:55:31;4.60;;;3.22;;
68216;SDS011;55037;52.354;4.992;2024-01-10T10:58:01;5.25;;;3.15;;
68216;SDS011;55037;52.354;4.992;2024-01-10T11:00:38;6.05;;;3.05;;
68216;SDS011;55037;52.354;4.992;2024-01-10T11:03:05;5.38;;;3.17;;
68216;SDS011;55037;52.354;4.992;2024-01-10T11:05:34;3.92;;;2.58;;
68216;SDS011;55037;52.354;4.992;2024-01-10T11:08:02;4.73;;;3.03;;
68216;SDS011;55037;52.354;4.992;2024-01-10T11:10:32;4.05;;;2.97;;
68216;SDS011;55037;52.354;4.992;2024-01-10T11:13:05;4.68;;;2.90;;
68216;SDS011;55037;52.354;4.992;2024-01-10T11:20:53;5.80;;;3.75;;
68216;SDS011;55037;52.354;4.992;2024-01-10T11:23:31;5.20;;;3.30;;
68216;SDS011;55037;52.354;4.992;2024-01-10T11:26:03;5.47;;;3.47;;
68216;SDS011;55037;52.354;4.992;2024-01-10T11:28:31;5.57;;;3.47;;
68216;SDS011;55037;52.354;4.992;2024-01-10T11:30:59;5.20;;;3.10;;
68216;SDS011;55037;52.354;4.992;2024-01-10T11:33:31;4.35;;;2.70;;
68216;SDS011;55037;52.354;4.992;2024-01-10T11:36:06;5.00;;;3.60;;
68216;SDS011;55037;52.354;4.992;2024-01-10T11:38:41;4.30;;;3.08;;
68216;SDS011;55037;52.354;4.992;2024-01-10T11:41:12;5.30;;;3.53;;
68216;SDS011;55037;52.354;4.992;2024-01-10T11:43:41;3.25;;;2.33;;
68216;SDS011;55037;52.354;4.992;2024-01-10T11:46:08;5.20;;;3.30;;
68216;SDS011;55037;52.354;4.992;2024-01-10T11:48:38;4.30;;;3.10;;
68216;SDS011;55037;52.354;4.992;2024-01-10T11:51:07;4.88;;;2.90;;
68216;SDS011;55037;52.354;4.992;2024-01-10T11:56:12;4.43;;;3.10;;
68216;SDS011;55037;52.354;4.992;2024-01-10T11:58:52;4.78;;;3.00;;
68216;SDS011;55037;52.354;4.992;2024-01-10T12:01:20;5.55;;;2.90;;
68216;SDS011;55037;52.354;4.992;2024-01-10T12:03:50;3.53;;;2.63;;
68216;SDS011;55037;52.354;4.992;2024-01-10T12:06:39;3.92;;;3.03;;
68216;SDS011;55037;52.354;4.992;2024-01-10T12:09:07;5.20;;;3.53;;
68216;SDS011;55037;52.354;4.992;2024-01-10T12:11:35;4.18;;;3.13;;
68216;SDS011;55037;52.354;4.992;2024-01-10T12:14:03;5.70;;;3.65;;
68216;SDS011;55037;52.354;4.992;2024-01-10T12:16:32;4.68;;;3.15;;
68216;SDS011;55037;52.354;4.992;2024-01-10T12:19:00;4.10;;;3.20;;
68216;SDS011;55037;52.354;4.992;2024-01-10T12:21:27;4.95;;;2.67;;
68216;SDS011;55037;52.354;4.992;2024-01-10T12:23:56;4.72;;;3.10;;
68216;SDS011;55037;52.354;4.992;2024-01-10T12:26:24;7.97;;;2.90;;
68216;SDS011;55037;52.354;4.992;2024-01-10T12:28:55;10.37;;;2.93;;
68216;SDS011;55037;52.354;4.992;2024-01-10T12:31:23;3.63;;;2.60;;
68216;SDS011;55037;52.354;4.992;2024-01-10T12:33:52;5.13;;;3.13;;
68216;SDS011;55037;52.354;4.992;2024-01-10T12:36:20;4.03;;;2.93;;
68216;SDS011;55037;52.354;4.992;2024-01-10T12:38:47;3.85;;;2.88;;
68216;SDS011;55037;52.354;4.992;2024-01-10T12:41:15;3.65;;;2.53;;
68216;SDS011;55037;52.354;4.992;2024-01-10T12:43:48;5.03;;;3.22;;
68216;SDS011;55037;52.354;4.992;2024-01-10T12:46:17;3.70;;;2.93;;
68216;SDS011;55037;52.354;4.992;2024-01-10T12:48:44;4.20;;;3.10;;
68216;SDS011;55037;52.354;4.992;2024-01-10T12:51:13;6.13;;;3.13;;
68216;SDS011;55037;52.354;4.992;2024-01-10T12:53:42;4.70;;;3.03;;
68216;SDS011;55037;52.354;4.992;2024-01-10T12:56:10;4.90;;;3.63;;
68216;SDS011;55037;52.354;4.992;2024-01-10T12:58:41;4.53;;;3.17;;
68216;SDS011;55037;52.354;4.992;2024-01-10T13:01:09;4.78;;;2.92;;
68216;SDS011;55037;52.354;4.992;2024-01-10T13:03:37;3.95;;;2.80;;
68216;SDS011;55037;52.354;4.992;2024-01-10T13:06:06;5.33;;;3.43;;
68216;SDS011;55037;52.354;4.992;2024-01-10T13:08:34;6.13;;;3.35;;
68216;SDS011;55037;52.354;4.992;2024-01-10T13:11:01;4.50;;;3.42;;
68216;SDS011;55037;52.354;4.992;2024-01-10T13:13:35;4.43;;;3.03;;
68216;SDS011;55037;52.354;4.992;2024-01-10T13:16:03;6.15;;;3.67;;
68216;SDS011;55037;52.354;4.992;2024-01-10T13:18:31;3.72;;;2.40;;
68216;SDS011;55037;52.354;4.992;2024-01-10T13:20:58;4.03;;;2.80;;
68216;SDS011;55037;52.354;4.992;2024-01-10T13:23:26;4.33;;;2.93;;
68216;SDS011;55037;52.354;4.992;2024-01-10T13:25:54;3.97;;;3.08;;
68216;SDS011;55037;52.354;4.992;2024-01-10T13:28:21;3.30;;;2.28;;
68216;SDS011;55037;52.354;4.992;2024-01-10T13:30:49;6.20;;;3.08;;
68216;SDS011;55037;52.354;4.992;2024-01-10T13:33:18;3.87;;;3.00;;
68216;SDS011;55037;52.354;4.992;2024-01-10T13:35:47;3.95;;;2.67;;
68216;SDS011;55037;52.354;4.992;2024-01-10T13:38:16;3.55;;;2.80;;
68216;SDS011;55037;52.354;4.992;2024-01-10T13:40:44;3.30;;;2.40;;
68216;SDS011;55037;52.354;4.992;2024-01-10T13:43:11;4.13;;;2.85;;
68216;SDS011;55037;52.354;4.992;2024-01-10T13:45:39;3.65;;;2.63;;
68216;SDS011;55037;52.354;4.992;2024-01-10T13:48:06;4.05;;;2.85;;
68216;SDS011;55037;52.354;4.992;2024-01-10T13:50:34;4.73;;;2.83;;
68216;SDS011;55037;52.354;4.992;2024-01-10T13:53:02;3.63;;;2.38;;
68216;SDS011;55037;52.354;4.992;2024-01-10T13:55:31;3.50;;;2.57;;
68216;SDS011;55037;52.354;4.992;2024-01-10T13:57:59;3.92;;;2.50;;
68216;SDS011;55037;52.354;4.992;2024-01-10T14:00:26;4.75;;;2.88;;
68216;SDS011;55037;52.354;4.992;2024-01-10T14:02:54;3.38;;;2.38;;
68216;SDS011;55037;52.354;4.992;2024-01-10T14:05:26;5.13;;;3.00;;
68216;SDS011;55037;52.354;4.992;2024-01-10T14:07:54;4.20;;;2.75;;
68216;SDS011;55037;52.354;4.992;2024-01-10T14:10:22;5.00;;;2.95;;
68216;SDS011;55037;52.354;4.992;2024-01-10T14:12:50;4.22;;;3.05;;
68216;SDS011;55037;52.354;4.992;2024-01-10T14:15:18;4.63;;;2.63;;
68216;SDS011;55037;52.354;4.992;2024-01-10T14:17:46;3.53;;;2.50;;
68216;SDS011;55037;52.354;4.992;2024-01-10T14:20:13;5.55;;;2.72;;
68216;SDS011;55037;52.354;4.992;2024-01-10T14:22:41;5.22;;;2.70;;
68216;SDS011;55037;52.354;4.992;2024-01-10T14:25:09;3.58;;;2.47;;
68216;SDS011;55037;52.354;4.992;2024-01-10T14:27:37;3.90;;;2.60;;
68216;SDS011;55037;52.354;4.992;2024-01-10T14:30:05;3.90;;;2.55;;
68216;SDS011;55037;52.354;4.992;2024-01-10T14:32:36;5.32;;;2.95;;
68216;SDS011;55037;52.354;4.992;2024-01-10T14:35:05;4.80;;;2.40;;
68216;SDS011;55037;52.354;4.992;2024-01-10T14:37:33;3.90;;;2.53;;
68216;SDS011;55037;52.354;4.992;2024-01-10T14:40:03;5.68;;;2.28;;
68216;SDS011;55037;52.354;4.992;2024-01-10T14:42:31;5.38;;;2.85;;
68216;SDS011;55037;52.354;4.992;2024-01-10T14:45:00;5.33;;;2.53;;
68216;SDS011;55037;52.354;4.992;2024-01-10T14:47:28;4.38;;;2.92;;